sensor_id;sensor_type;location;lat;lon;timestamp;pressure;altitude;pressure_sealevel;temperature;humidity
69971;BME280;57301;50.328;8.542;2023-03-04T00:01:12;99192.03;;;-2.39;92.38
69971;BME280;57301;50.328;8.542;2023-03-04T00:03:38;99192.03;;;-2.39;92.02
69971;BME280;57301;50.328;8.542;2023-03-04T00:06:05;99204.88;;;-2.33;92.29
69971;BME280;57301;50.328;8.542;2023-03-04T00:08:32;99202.16;;;-2.30;92.07
69971;BME280;57301;50.328;8.542;2023-03-04T00:10:59;99204.47;;;-2.23;91.38
69971;BME280;57301;50.328;8.542;2023-03-04T00:13:26;99202.09;;;-2.29;90.91
69971;BME280;57301;50.328;8.542;2023-03-04T00:15:52;99203.47;;;-2.42;91.24
69971;BME280;57301;50.328;8.542;2023-03-04T00:18:19;99204.09;;;-2.35;90.76
69971;BME280;57301;50.328;8.542;2023-03-04T00:20:46;99209.75;;;-2.48;91.22
69971;BME280;57301;50.328;8.542;2023-03-04T00:23:15;99203.00;;;-2.53;91.47
69971;BME280;57301;50.328;8.542;2023-03-04T00:25:41;99212.00;;;-2.62;92.15
69971;BME280;57301;50.328;8.542;2023-03-04T00:28:09;99199.91;;;-2.64;92.59
69971;BME280;57301;50.328;8.542;2023-03-04T00:30:35;99209.75;;;-2.48;92.50
69971;BME280;57301;50.328;8.542;2023-03-04T00:33:02;99198.22;;;-2.42;92.05
69971;BME280;57301;50.328;8.542;2023-03-04T00:35:28;99199.09;;;-2.41;91.72
69971;BME280;57301;50.328;8.542;2023-03-04T00:37:55;99203.25;;;-2.36;91.71
69971;BME280;57301;50.328;8.542;2023-03-04T00:40:21;99200.94;;;-2.20;91.76
69971;BME280;57301;50.328;8.542;2023-03-04T00:42:48;99203.31;;;-2.14;90.85
69971;BME280;57301;50.328;8.542;2023-03-04T00:45:14;99204.53;;;-2.01;89.69
69971;BME280;57301;50.328;8.542;2023-03-04T00:47:41;99201.88;;;-1.99;88.77
69971;BME280;57301;50.328;8.542;2023-03-04T00:50:08;99199.47;;;-1.82;88.14
69971;BME280;57301;50.328;8.542;2023-03-04T00:52:35;99197.22;;;-1.69;88.40
69971;BME280;57301;50.328;8.542;2023-03-04T00:55:01;99193.34;;;-1.59;87.84
69971;BME280;57301;50.328;8.542;2023-03-04T00:57:28;99189.56;;;-1.52;87.60
69971;BME280;57301;50.328;8.542;2023-03-04T00:59:54;99191.88;;;-1.44;87.66
69971;BME280;57301;50.328;8.542;2023-03-04T01:02:21;99184.44;;;-1.33;86.81
69971;BME280;57301;50.328;8.542;2023-03-04T01:04:47;99190.19;;;-1.45;87.09
69971;BME280;57301;50.328;8.542;2023-03-04T01:07:14;99183.09;;;-1.43;87.74
69971;BME280;57301;50.328;8.542;2023-03-04T01:09:40;99181.66;;;-1.28;86.46
69971;BME280;57301;50.328;8.542;2023-03-04T01:12:07;99175.25;;;-1.21;85.05
69971;BME280;57301;50.328;8.542;2023-03-04T01:14:33;99173.41;;;-1.19;85.64
69971;BME280;57301;50.328;8.542;2023-03-04T01:17:00;99168.94;;;-1.17;85.13
69971;BME280;57301;50.328;8.542;2023-03-04T01:19:27;99167.31;;;-1.20;84.75
69971;BME280;57301;50.328;8.542;2023-03-04T01:21:53;99169.75;;;-1.15;85.19
69971;BME280;57301;50.328;8.542;2023-03-04T01:24:20;99172.47;;;-1.18;85.89
69971;BME280;57301;50.328;8.542;2023-03-04T01:26:46;99167.81;;;-1.10;86.21
69971;BME280;57301;50.328;8.542;2023-03-04T01:29:13;99162.81;;;-0.96;85.02
69971;BME280;57301;50.328;8.542;2023-03-04T01:31:39;99154.72;;;-0.90;84.78
69971;BME280;57301;50.328;8.542;2023-03-04T01:34:06;99153.88;;;-0.90;84.85
69971;BME280;57301;50.328;8.542;2023-03-04T01:36:35;99152.69;;;-0.83;84.97
69971;BME280;57301;50.328;8.542;2023-03-04T01:39:01;99142.59;;;-0.72;85.19
69971;BME280;57301;50.328;8.542;2023-03-04T01:41:29;99137.09;;;-0.66;85.44
69971;BME280;57301;50.328;8.542;2023-03-04T01:43:57;99144.00;;;-0.65;85.80
69971;BME280;57301;50.328;8.542;2023-03-04T01:46:26;99137.19;;;-0.48;85.23
69971;BME280;57301;50.328;8.542;2023-03-04T01:48:52;99134.22;;;-0.41;84.97
69971;BME280;57301;50.328;8.542;2023-03-04T01:51:40;99137.41;;;-0.34;84.79
69971;BME280;57301;50.328;8.542;2023-03-04T01:54:12;99130.75;;;-0.22;84.78
69971;BME280;57301;50.328;8.542;2023-03-04T01:56:39;99125.88;;;-0.11;84.61
69971;BME280;57301;50.328;8.542;2023-03-04T02:01:37;99118.94;;;-0.12;84.07
69971;BME280;57301;50.328;8.542;2023-03-04T02:04:05;99119.53;;;-0.07;84.51
69971;BME280;57301;50.328;8.542;2023-03-04T02:06:34;99114.84;;;-0.01;84.28
69971;BME280;57301;50.328;8.542;2023-03-04T02:09:02;99113.88;;;0.02;84.07
69971;BME280;57301;50.328;8.542;2023-03-04T02:11:29;99108.19;;;0.11;84.30
69971;BME280;57301;50.328;8.542;2023-03-04T02:13:55;99111.06;;;0.24;83.87
69971;BME280;57301;50.328;8.542;2023-03-04T02:16:22;99109.56;;;0.37;83.43
69971;BME280;57301;50.328;8.542;2023-03-04T02:18:49;99106.56;;;0.45;83.50
69971;BME280;57301;50.328;8.542;2023-03-04T02:21:28;99106.41;;;0.48;83.31
69971;BME280;57301;50.328;8.542;2023-03-04T02:24:18;99104.41;;;0.53;83.29
69971;BME280;57301;50.328;8.542;2023-03-04T02:26:46;99099.31;;;0.50;83.20
69971;BME280;57301;50.328;8.542;2023-03-04T02:29:15;99098.72;;;0.62;82.99
69971;BME280;57301;50.328;8.542;2023-03-04T02:31:47;99095.59;;;0.71;82.46
69971;BME280;57301;50.328;8.542;2023-03-04T02:34:17;99098.00;;;0.76;82.28
69971;BME280;57301;50.328;8.542;2023-03-04T02:36:45;99101.72;;;0.72;81.81
69971;BME280;57301;50.328;8.542;2023-03-04T02:41:49;99094.69;;;0.72;82.04
69971;BME280;57301;50.328;8.542;2023-03-04T02:44:28;99090.13;;;0.76;82.05
69971;BME280;57301;50.328;8.542;2023-03-04T02:46:56;99088.28;;;0.78;81.85
69971;BME280;57301;50.328;8.542;2023-03-04T02:49:24;99093.53;;;0.78;81.61
69971;BME280;57301;50.328;8.542;2023-03-04T02:51:56;99089.56;;;1.04;81.51
69971;BME280;57301;50.328;8.542;2023-03-04T02:54:24;99088.13;;;0.98;81.41
69971;BME280;57301;50.328;8.542;2023-03-04T02:56:52;99086.06;;;1.03;80.96
69971;BME280;57301;50.328;8.542;2023-03-04T02:59:21;99081.44;;;1.08;81.00
69971;BME280;57301;50.328;8.542;2023-03-04T03:01:48;99085.00;;;1.07;81.07
69971;BME280;57301;50.328;8.542;2023-03-04T03:04:15;99083.66;;;1.16;81.00
69971;BME280;57301;50.328;8.542;2023-03-04T03:06:41;99082.56;;;1.04;80.69
69971;BME280;57301;50.328;8.542;2023-03-04T03:09:08;99073.78;;;1.04;80.80
69971;BME280;57301;50.328;8.542;2023-03-04T03:11:35;99076.66;;;1.17;80.79
69971;BME280;57301;50.328;8.542;2023-03-04T03:14:02;99086.75;;;1.24;80.40
69971;BME280;57301;50.328;8.542;2023-03-04T03:16:28;99079.19;;;1.18;80.59
69971;BME280;57301;50.328;8.542;2023-03-04T03:18:55;99073.44;;;1.27;80.01
69971;BME280;57301;50.328;8.542;2023-03-04T03:21:22;99070.81;;;1.27;80.29
69971;BME280;57301;50.328;8.542;2023-03-04T03:23:48;99076.78;;;1.31;80.21
69971;BME280;57301;50.328;8.542;2023-03-04T03:26:15;99073.22;;;1.32;80.12
69971;BME280;57301;50.328;8.542;2023-03-04T03:28:42;99068.81;;;1.32;80.15
69971;BME280;57301;50.328;8.542;2023-03-04T03:31:09;99068.22;;;1.43;79.71
69971;BME280;57301;50.328;8.542;2023-03-04T03:33:35;99072.19;;;1.34;79.54
69971;BME280;57301;50.328;8.542;2023-03-04T03:36:02;99072.97;;;1.37;79.55
69971;BME280;57301;50.328;8.542;2023-03-04T03:38:29;99064.75;;;1.43;79.58
69971;BME280;57301;50.328;8.542;2023-03-04T03:40:56;99076.63;;;1.50;79.50
69971;BME280;57301;50.328;8.542;2023-03-04T03:43:22;99064.66;;;1.44;79.44
69971;BME280;57301;50.328;8.542;2023-03-04T03:45:49;99069.22;;;1.41;79.61
69971;BME280;57301;50.328;8.542;2023-03-04T03:48:17;99072.03;;;1.53;79.24
69971;BME280;57301;50.328;8.542;2023-03-04T03:50:43;99071.53;;;1.47;79.39
69971;BME280;57301;50.328;8.542;2023-03-04T03:53:13;99078.09;;;1.55;79.23
69971;BME280;57301;50.328;8.542;2023-03-04T03:55:40;99074.09;;;1.48;78.98
69971;BME280;57301;50.328;8.542;2023-03-04T03:58:06;99070.69;;;1.46;79.12
69971;BME280;57301;50.328;8.542;2023-03-04T04:00:33;99063.31;;;1.53;78.86
69971;BME280;57301;50.328;8.542;2023-03-04T04:03:00;99060.34;;;1.59;78.82
69971;BME280;57301;50.328;8.542;2023-03-04T04:05:27;99057.56;;;1.62;78.20
69971;BME280;57301;50.328;8.542;2023-03-04T04:07:53;99053.50;;;1.56;78.71
69971;BME280;57301;50.328;8.542;2023-03-04T04:10:20;99061.81;;;1.49;78.64
69971;BME280;57301;50.328;8.542;2023-03-04T04:12:47;99059.78;;;1.54;78.55
69971;BME280;57301;50.328;8.542;2023-03-04T04:15:15;99064.75;;;1.58;78.66
69971;BME280;57301;50.328;8.542;2023-03-04T04:17:43;99064.75;;;1.58;78.55
69971;BME280;57301;50.328;8.542;2023-03-04T04:20:10;99067.47;;;1.57;78.17
69971;BME280;57301;50.328;8.542;2023-03-04T04:22:37;99065.44;;;1.62;78.35
69971;BME280;57301;50.328;8.542;2023-03-04T04:25:04;99056.81;;;1.60;78.40
69971;BME280;57301;50.328;8.542;2023-03-04T04:27:30;99056.03;;;1.58;78.54
69971;BME280;57301;50.328;8.542;2023-03-04T04:29:57;99059.34;;;1.61;78.38
69971;BME280;57301;50.328;8.542;2023-03-04T04:32:23;99055.44;;;1.69;78.05
69971;BME280;57301;50.328;8.542;2023-03-04T04:34:50;99058.91;;;1.69;78.38
69971;BME280;57301;50.328;8.542;2023-03-04T04:37:16;99057.66;;;1.76;77.73
69971;BME280;57301;50.328;8.542;2023-03-04T04:39:43;99061.41;;;1.72;77.60
69971;BME280;57301;50.328;8.542;2023-03-04T04:42:10;99052.91;;;1.67;77.85
69971;BME280;57301;50.328;8.542;2023-03-04T04:44:36;99045.38;;;1.61;78.51
69971;BME280;57301;50.328;8.542;2023-03-04T04:47:05;99047.72;;;1.66;78.29
69971;BME280;57301;50.328;8.542;2023-03-04T04:49:32;99040.84;;;1.63;78.49
69971;BME280;57301;50.328;8.542;2023-03-04T04:51:59;99041.78;;;1.46;79.12
69971;BME280;57301;50.328;8.542;2023-03-04T04:54:26;99040.34;;;1.56;78.57
69971;BME280;57301;50.328;8.542;2023-03-04T04:56:52;99040.63;;;1.68;79.06
69971;BME280;57301;50.328;8.542;2023-03-04T04:59:19;99042.31;;;1.69;78.21
69971;BME280;57301;50.328;8.542;2023-03-04T05:01:46;99045.53;;;1.74;78.01
69971;BME280;57301;50.328;8.542;2023-03-04T05:04:12;99037.22;;;1.81;77.57
69971;BME280;57301;50.328;8.542;2023-03-04T05:06:39;99037.47;;;1.77;77.75
69971;BME280;57301;50.328;8.542;2023-03-04T05:09:05;99039.34;;;1.75;77.87
69971;BME280;57301;50.328;8.542;2023-03-04T05:11:32;99042.13;;;1.72;77.87
69971;BME280;57301;50.328;8.542;2023-03-04T05:13:59;99042.13;;;1.72;77.72
69971;BME280;57301;50.328;8.542;2023-03-04T05:16:26;99051.28;;;1.65;78.14
69971;BME280;57301;50.328;8.542;2023-03-04T05:18:52;99047.06;;;1.62;78.40
69971;BME280;57301;50.328;8.542;2023-03-04T05:21:19;99045.97;;;1.66;78.73
69971;BME280;57301;50.328;8.542;2023-03-04T05:23:46;99050.28;;;1.67;78.74
69971;BME280;57301;50.328;8.542;2023-03-04T05:26:15;99051.28;;;1.65;78.48
69971;BME280;57301;50.328;8.542;2023-03-04T05:28:42;99043.91;;;1.71;78.43
69971;BME280;57301;50.328;8.542;2023-03-04T05:31:10;99053.75;;;1.68;78.18
69971;BME280;57301;50.328;8.542;2023-03-04T05:33:37;99042.81;;;1.75;78.47
69971;BME280;57301;50.328;8.542;2023-03-04T05:36:04;99047.22;;;1.75;77.99
69971;BME280;57301;50.328;8.542;2023-03-04T05:38:32;99046.28;;;1.76;77.87
69971;BME280;57301;50.328;8.542;2023-03-04T05:41:01;99048.91;;;1.76;77.80
69971;BME280;57301;50.328;8.542;2023-03-04T05:43:28;99042.03;;;1.89;77.27
69971;BME280;57301;50.328;8.542;2023-03-04T05:45:55;99037.47;;;1.93;77.19
69971;BME280;57301;50.328;8.542;2023-03-04T05:48:22;99042.53;;;1.96;77.15
69971;BME280;57301;50.328;8.542;2023-03-04T05:50:56;99041.09;;;1.90;77.37
69971;BME280;57301;50.328;8.542;2023-03-04T05:53:23;99031.97;;;1.81;77.01
69971;BME280;57301;50.328;8.542;2023-03-04T05:55:50;99046.78;;;1.82;77.37
69971;BME280;57301;50.328;8.542;2023-03-04T05:58:17;99046.94;;;1.95;76.63
69971;BME280;57301;50.328;8.542;2023-03-04T06:00:44;99047.88;;;1.94;76.74
69971;BME280;57301;50.328;8.542;2023-03-04T06:03:19;99051.38;;;1.95;76.56
69971;BME280;57301;50.328;8.542;2023-03-04T06:05:47;99056.47;;;1.98;75.56
69971;BME280;57301;50.328;8.542;2023-03-04T06:08:13;99047.78;;;1.96;76.28
69971;BME280;57301;50.328;8.542;2023-03-04T06:10:41;99056.47;;;1.98;76.30
69971;BME280;57301;50.328;8.542;2023-03-04T06:13:08;99063.06;;;2.05;76.20
69971;BME280;57301;50.328;8.542;2023-03-04T06:15:35;99063.22;;;2.02;76.38
69971;BME280;57301;50.328;8.542;2023-03-04T06:18:02;99074.78;;;1.83;76.83
69971;BME280;57301;50.328;8.542;2023-03-04T06:20:28;99073.78;;;1.86;76.81
69971;BME280;57301;50.328;8.542;2023-03-04T06:22:55;99074.09;;;1.96;76.69
69971;BME280;57301;50.328;8.542;2023-03-04T06:25:22;99077.31;;;2.01;76.44
69971;BME280;57301;50.328;8.542;2023-03-04T06:27:49;99082.16;;;2.08;76.29
69971;BME280;57301;50.328;8.542;2023-03-04T06:30:17;99076.88;;;2.08;76.15
69971;BME280;57301;50.328;8.542;2023-03-04T06:32:44;99081.09;;;2.27;75.44
69971;BME280;57301;50.328;8.542;2023-03-04T06:35:11;99083.75;;;2.27;75.01
69971;BME280;57301;50.328;8.542;2023-03-04T06:37:39;99080.34;;;2.25;75.28
69971;BME280;57301;50.328;8.542;2023-03-04T06:40:06;99080.09;;;2.29;75.43
69971;BME280;57301;50.328;8.542;2023-03-04T06:42:33;99084.44;;;2.30;75.08
69971;BME280;57301;50.328;8.542;2023-03-04T06:45:00;99080.44;;;2.23;75.10
69971;BME280;57301;50.328;8.542;2023-03-04T06:47:27;99085.53;;;2.26;74.93
69971;BME280;57301;50.328;8.542;2023-03-04T06:49:53;99089.44;;;2.35;74.87
69971;BME280;57301;50.328;8.542;2023-03-04T06:52:23;99087.88;;;2.47;74.13
69971;BME280;57301;50.328;8.542;2023-03-04T06:54:50;99097.28;;;2.51;74.29
69971;BME280;57301;50.328;8.542;2023-03-04T06:57:16;99094.47;;;2.54;74.21
69971;BME280;57301;50.328;8.542;2023-03-04T06:59:43;99100.25;;;2.45;73.95
69971;BME280;57301;50.328;8.542;2023-03-04T07:02:11;99095.59;;;2.50;74.39
69971;BME280;57301;50.328;8.542;2023-03-04T07:04:39;99091.94;;;2.52;73.68
69971;BME280;57301;50.328;8.542;2023-03-04T07:07:06;99093.09;;;2.62;73.68
69971;BME280;57301;50.328;8.542;2023-03-04T07:09:33;99099.97;;;2.65;73.35
69971;BME280;57301;50.328;8.542;2023-03-04T07:11:59;99101.56;;;2.67;73.49
69971;BME280;57301;50.328;8.542;2023-03-04T07:14:26;99102.06;;;2.74;73.48
69971;BME280;57301;50.328;8.542;2023-03-04T07:16:53;99099.66;;;2.85;72.95
69971;BME280;57301;50.328;8.542;2023-03-04T07:19:19;99107.06;;;2.79;72.91
69971;BME280;57301;50.328;8.542;2023-03-04T07:21:46;99108.94;;;2.77;72.76
69971;BME280;57301;50.328;8.542;2023-03-04T07:24:12;99112.13;;;2.82;72.33
69971;BME280;57301;50.328;8.542;2023-03-04T07:26:39;99119.63;;;2.89;72.77
69971;BME280;57301;50.328;8.542;2023-03-04T07:29:05;99120.09;;;2.96;72.43
69971;BME280;57301;50.328;8.542;2023-03-04T07:31:33;99118.97;;;3.00;72.55
69971;BME280;57301;50.328;8.542;2023-03-04T07:34:05;99130.56;;;3.12;71.81
69971;BME280;57301;50.328;8.542;2023-03-04T07:36:34;99122.66;;;3.12;71.40
69971;BME280;57301;50.328;8.542;2023-03-04T07:39:01;99121.91;;;3.10;71.43
69971;BME280;57301;50.328;8.542;2023-03-04T07:41:29;99131.13;;;3.17;71.84
69971;BME280;57301;50.328;8.542;2023-03-04T07:43:57;99121.34;;;3.19;71.25
69971;BME280;57301;50.328;8.542;2023-03-04T07:46:24;99127.59;;;3.32;71.08
69971;BME280;57301;50.328;8.542;2023-03-04T07:48:51;99121.28;;;3.35;70.95
69971;BME280;57301;50.328;8.542;2023-03-04T07:51:20;99126.19;;;3.27;71.08
69971;BME280;57301;50.328;8.542;2023-03-04T07:53:49;99129.09;;;3.36;70.46
69971;BME280;57301;50.328;8.542;2023-03-04T07:56:21;99127.22;;;3.38;71.07
69971;BME280;57301;50.328;8.542;2023-03-04T07:58:49;99124.28;;;3.43;70.24
69971;BME280;57301;50.328;8.542;2023-03-04T08:01:30;99122.59;;;3.42;70.48
69971;BME280;57301;50.328;8.542;2023-03-04T08:03:57;99130.03;;;3.49;70.57
69971;BME280;57301;50.328;8.542;2023-03-04T08:06:25;99120.25;;;3.52;70.58
69971;BME280;57301;50.328;8.542;2023-03-04T08:08:57;99123.63;;;3.54;70.16
69971;BME280;57301;50.328;8.542;2023-03-04T08:11:25;99115.53;;;3.71;69.85
69971;BME280;57301;50.328;8.542;2023-03-04T08:13:52;99125.34;;;3.69;69.43
69971;BME280;57301;50.328;8.542;2023-03-04T08:16:21;99125.72;;;3.77;69.12
69971;BME280;57301;50.328;8.542;2023-03-04T08:18:50;99131.34;;;3.85;68.98
69971;BME280;57301;50.328;8.542;2023-03-04T08:21:19;99128.00;;;3.69;69.24
69971;BME280;57301;50.328;8.542;2023-03-04T08:23:47;99128.81;;;3.84;68.76
69971;BME280;57301;50.328;8.542;2023-03-04T08:26:25;99132.78;;;3.76;68.36
69971;BME280;57301;50.328;8.542;2023-03-04T08:28:53;99119.94;;;3.85;68.26
69971;BME280;57301;50.328;8.542;2023-03-04T08:31:20;99131.66;;;3.66;69.16
69971;BME280;57301;50.328;8.542;2023-03-04T08:33:47;99130.03;;;3.78;69.21
69971;BME280;57301;50.328;8.542;2023-03-04T08:36:14;99133.97;;;3.85;68.81
69971;BME280;57301;50.328;8.542;2023-03-04T08:38:41;99140.56;;;3.92;69.45
69971;BME280;57301;50.328;8.542;2023-03-04T08:41:08;99132.19;;;3.86;68.21
69971;BME280;57301;50.328;8.542;2023-03-04T08:43:35;99142.66;;;3.87;68.71
69971;BME280;57301;50.328;8.542;2023-03-04T08:46:01;99141.72;;;3.88;68.92
69971;BME280;57301;50.328;8.542;2023-03-04T08:48:28;99140.50;;;3.94;69.16
69971;BME280;57301;50.328;8.542;2023-03-04T08:50:55;99143.59;;;4.00;68.43
69971;BME280;57301;50.328;8.542;2023-03-04T08:53:21;99142.03;;;4.11;68.63
69971;BME280;57301;50.328;8.542;2023-03-04T08:55:50;99140.19;;;4.13;69.01
69971;BME280;57301;50.328;8.542;2023-03-04T08:58:16;99133.06;;;4.27;67.62
69971;BME280;57301;50.328;8.542;2023-03-04T09:00:45;99141.53;;;4.32;68.06
69971;BME280;57301;50.328;8.542;2023-03-04T09:03:17;99143.13;;;4.35;67.59
69971;BME280;57301;50.328;8.542;2023-03-04T09:05:46;99132.81;;;4.45;67.64
69971;BME280;57301;50.328;8.542;2023-03-04T09:08:14;99141.09;;;4.53;67.04
69971;BME280;57301;50.328;8.542;2023-03-04T09:10:41;99139.41;;;4.52;66.43
69971;BME280;57301;50.328;8.542;2023-03-04T09:13:08;99142.50;;;4.31;67.24
69971;BME280;57301;50.328;8.542;2023-03-04T09:15:37;99138.66;;;4.50;67.56
69971;BME280;57301;50.328;8.542;2023-03-04T09:18:04;99139.94;;;4.57;66.47
69971;BME280;57301;50.328;8.542;2023-03-04T09:20:31;99137.59;;;4.52;66.89
69971;BME280;57301;50.328;8.542;2023-03-04T09:22:58;99141.53;;;4.59;65.76
69971;BME280;57301;50.328;8.542;2023-03-04T09:25:24;99135.50;;;4.57;65.70
69971;BME280;57301;50.328;8.542;2023-03-04T09:27:51;99134.56;;;4.58;65.92
69971;BME280;57301;50.328;8.542;2023-03-04T09:30:17;99127.03;;;4.52;66.85
69971;BME280;57301;50.328;8.542;2023-03-04T09:32:44;99135.19;;;4.89;65.64
69971;BME280;57301;50.328;8.542;2023-03-04T09:35:11;99136.78;;;4.92;66.12
69971;BME280;57301;50.328;8.542;2023-03-04T09:37:37;99128.13;;;5.15;65.09
69971;BME280;57301;50.328;8.542;2023-03-04T09:40:08;99124.66;;;5.15;63.98
69971;BME280;57301;50.328;8.542;2023-03-04T09:42:42;99132.94;;;5.23;64.01
69971;BME280;57301;50.328;8.542;2023-03-04T09:45:17;99140.06;;;4.95;65.68
69971;BME280;57301;50.328;8.542;2023-03-04T09:47:45;99137.13;;;5.12;64.11
69971;BME280;57301;50.328;8.542;2023-03-04T09:50:13;99133.34;;;5.29;63.64
69971;BME280;57301;50.328;8.542;2023-03-04T09:52:54;99133.88;;;5.60;63.21
69971;BME280;57301;50.328;8.542;2023-03-04T09:55:34;99139.59;;;5.66;62.21
69971;BME280;57301;50.328;8.542;2023-03-04T10:01:06;99135.00;;;5.81;62.58
69971;BME280;57301;50.328;8.542;2023-03-04T10:03:42;99123.59;;;5.81;61.63
69971;BME280;57301;50.328;8.542;2023-03-04T10:06:16;99130.91;;;5.77;62.83
69971;BME280;57301;50.328;8.542;2023-03-04T10:08:55;99129.75;;;5.69;63.10
69971;BME280;57301;50.328;8.542;2023-03-04T10:11:37;99121.25;;;5.76;62.68
69971;BME280;57301;50.328;8.542;2023-03-04T10:17:13;99125.94;;;5.73;62.35
69971;BME280;57301;50.328;8.542;2023-03-04T10:19:58;99125.69;;;5.76;62.01
69971;BME280;57301;50.328;8.542;2023-03-04T10:22:47;99116.47;;;5.81;62.48
69971;BME280;57301;50.328;8.542;2023-03-04T10:25:24;99113.00;;;5.81;61.86
69971;BME280;57301;50.328;8.542;2023-03-04T10:27:57;99117.22;;;5.71;62.77
69971;BME280;57301;50.328;8.542;2023-03-04T10:33:32;99104.94;;;5.82;62.68
69971;BME280;57301;50.328;8.542;2023-03-04T10:39:11;99110.25;;;5.95;61.31
69971;BME280;57301;50.328;8.542;2023-03-04T10:41:43;99106.53;;;5.98;61.41
69971;BME280;57301;50.328;8.542;2023-03-04T10:44:17;99105.31;;;5.65;62.67
69971;BME280;57301;50.328;8.542;2023-03-04T10:46:45;99102.63;;;5.90;62.10
69971;BME280;57301;50.328;8.542;2023-03-04T10:49:14;99101.69;;;5.79;62.15
69971;BME280;57301;50.328;8.542;2023-03-04T10:54:41;99097.16;;;6.17;60.96
69971;BME280;57301;50.328;8.542;2023-03-04T10:57:15;99092.13;;;6.26;61.00
69971;BME280;57301;50.328;8.542;2023-03-04T10:59:46;99092.31;;;6.11;61.59
69971;BME280;57301;50.328;8.542;2023-03-04T11:02:19;99082.63;;;6.23;61.19
69971;BME280;57301;50.328;8.542;2023-03-04T11:07:42;99082.75;;;6.45;60.53
69971;BME280;57301;50.328;8.542;2023-03-04T11:10:40;99083.75;;;6.56;59.85
69971;BME280;57301;50.328;8.542;2023-03-04T11:13:24;99081.97;;;6.32;60.09
69971;BME280;57301;50.328;8.542;2023-03-04T11:15:57;99086.00;;;6.25;60.16
69971;BME280;57301;50.328;8.542;2023-03-04T11:18:33;99081.72;;;6.11;61.41
69971;BME280;57301;50.328;8.542;2023-03-04T11:21:05;99082.31;;;6.52;60.36
69971;BME280;57301;50.328;8.542;2023-03-04T11:23:38;99075.63;;;6.70;59.33
69971;BME280;57301;50.328;8.542;2023-03-04T11:26:13;99078.50;;;7.02;58.47
69971;BME280;57301;50.328;8.542;2023-03-04T11:31:23;99078.09;;;6.84;57.36
69971;BME280;57301;50.328;8.542;2023-03-04T11:34:30;99074.53;;;6.72;58.19
69971;BME280;57301;50.328;8.542;2023-03-04T11:37:09;99078.81;;;6.51;58.37
69971;BME280;57301;50.328;8.542;2023-03-04T11:39:54;99073.97;;;6.45;59.41
69971;BME280;57301;50.328;8.542;2023-03-04T11:42:44;99077.69;;;6.78;58.93
69971;BME280;57301;50.328;8.542;2023-03-04T11:45:20;99073.19;;;7.02;58.28
69971;BME280;57301;50.328;8.542;2023-03-04T11:48:07;99068.94;;;6.99;57.97
69971;BME280;57301;50.328;8.542;2023-03-04T11:50:47;99068.16;;;6.75;57.91
69971;BME280;57301;50.328;8.542;2023-03-04T11:53:24;99057.72;;;6.50;59.47
69971;BME280;57301;50.328;8.542;2023-03-04T11:58:59;99060.94;;;7.35;57.86
69971;BME280;57301;50.328;8.542;2023-03-04T12:01:46;99045.09;;;8.00;55.95
69971;BME280;57301;50.328;8.542;2023-03-04T12:04:27;99044.91;;;8.24;54.77
69971;BME280;57301;50.328;8.542;2023-03-04T12:07:08;99040.16;;;8.71;52.63
69971;BME280;57301;50.328;8.542;2023-03-04T12:09:54;99029.13;;;9.18;51.98
69971;BME280;57301;50.328;8.542;2023-03-04T12:12:41;99027.84;;;9.42;49.68
69971;BME280;57301;50.328;8.542;2023-03-04T12:15:19;99019.34;;;9.49;49.71
69971;BME280;57301;50.328;8.542;2023-03-04T12:26:48;98999.31;;;9.94;49.44
69971;BME280;57301;50.328;8.542;2023-03-04T12:29:31;99002.59;;;9.67;50.08
69971;BME280;57301;50.328;8.542;2023-03-04T12:35:13;98997.09;;;9.59;50.04
69971;BME280;57301;50.328;8.542;2023-03-04T12:38:04;98999.06;;;8.96;50.68
69971;BME280;57301;50.328;8.542;2023-03-04T12:40:56;98983.00;;;9.78;49.51
69971;BME280;57301;50.328;8.542;2023-03-04T12:43:30;98985.66;;;9.78;49.66
69971;BME280;57301;50.328;8.542;2023-03-04T12:46:10;98988.75;;;9.43;49.96
69971;BME280;57301;50.328;8.542;2023-03-04T12:48:43;98987.56;;;8.96;51.12
69971;BME280;57301;50.328;8.542;2023-03-04T12:51:24;98988.38;;;8.66;52.08
69971;BME280;57301;50.328;8.542;2023-03-04T12:54:21;98987.81;;;8.51;52.82
69971;BME280;57301;50.328;8.542;2023-03-04T12:57:18;98980.78;;;8.61;53.09
69971;BME280;57301;50.328;8.542;2023-03-04T13:14:22;98961.13;;;8.73;52.63
69971;BME280;57301;50.328;8.542;2023-03-04T13:19:57;98967.22;;;8.85;53.22
69971;BME280;57301;50.328;8.542;2023-03-04T13:25:44;98957.22;;;8.77;52.58
69971;BME280;57301;50.328;8.542;2023-03-04T13:28:15;98948.66;;;8.00;54.47
69971;BME280;57301;50.328;8.542;2023-03-04T13:43:27;98935.59;;;7.65;56.89
69971;BME280;57301;50.328;8.542;2023-03-04T13:51:24;98938.03;;;7.57;57.92
69971;BME280;57301;50.328;8.542;2023-03-04T13:56:38;98931.53;;;7.49;58.52
69971;BME280;57301;50.328;8.542;2023-03-04T14:04:26;98938.19;;;7.10;60.09
69971;BME280;57301;50.328;8.542;2023-03-04T14:06:55;98938.19;;;7.44;63.24
69971;BME280;57301;50.328;8.542;2023-03-04T14:09:29;98930.88;;;7.68;61.63
69971;BME280;57301;50.328;8.542;2023-03-04T14:11:58;98930.50;;;7.73;60.40
69971;BME280;57301;50.328;8.542;2023-03-04T14:14:28;98921.09;;;7.25;59.82
69971;BME280;57301;50.328;8.542;2023-03-04T14:17:03;98924.72;;;7.24;61.83
69971;BME280;57301;50.328;8.542;2023-03-04T14:19:32;98924.09;;;7.32;60.90
69971;BME280;57301;50.328;8.542;2023-03-04T14:25:14;98911.06;;;7.18;60.63
69971;BME280;57301;50.328;8.542;2023-03-04T14:27:45;98910.69;;;7.34;60.95
69971;BME280;57301;50.328;8.542;2023-03-04T14:30:21;98911.31;;;7.37;63.96
69971;BME280;57301;50.328;8.542;2023-03-04T14:33:11;98906.50;;;7.31;61.21
69971;BME280;57301;50.328;8.542;2023-03-04T14:35:45;98910.00;;;6.98;61.55
69971;BME280;57301;50.328;8.542;2023-03-04T14:38:39;98912.41;;;7.01;61.90
69971;BME280;57301;50.328;8.542;2023-03-04T14:46:35;98907.69;;;6.93;61.97
69971;BME280;57301;50.328;8.542;2023-03-04T14:49:06;98893.84;;;6.90;62.48
69971;BME280;57301;50.328;8.542;2023-03-04T14:54:03;98895.31;;;6.83;62.91
69971;BME280;57301;50.328;8.542;2023-03-04T14:56:33;98894.22;;;6.85;62.94
69971;BME280;57301;50.328;8.542;2023-03-04T14:59:00;98890.50;;;6.88;63.01
69971;BME280;57301;50.328;8.542;2023-03-04T15:01:35;98890.38;;;6.89;62.52
69971;BME280;57301;50.328;8.542;2023-03-04T15:04:04;98890.84;;;6.94;67.47